Latest Coastal Weather Observations for Yanakie

IDV60701

Issued at 11:51 pm EST Saturday 1 October 2016 (issued every 10 minutes, with the page automatically refreshed every 10 minutes)

About coastal observations | Map of coastal stations | Coastal observations for VIC | Marine services | Other Formats
Station Details ID: 085301 Name: YANAKIE Lat: -38.81 Lon: 146.19 Height: 13.3 m
Data from the previous 72 hours. | See also: Recent months at Yanakie
Date/Time
EST
Temp
°C
Wind Pressure Rain since
9am
mm
Weather Cloud Vis
km
Sea
Height
m
Swell
Dir  Spd
kts
Gust
kts
hPa Trend Height
m
Period
s
Dir
01/11:30pm 10.4 WNW 3 3 1006.7 - 0.6 - - - - - - -
01/11:00pm 10.7 WNW 4 5 1006.8 - 0.6 - - - - - - -
01/10:30pm 11.3 W 5 7 1007.1 - 0.6 - - - - - - -
01/10:00pm 11.4 NW 3 4 1007.1 - 0.6 - - - - - - -
01/09:30pm 11.0 NW 3 5 1007.0 - 0.6 - - - - - - -
01/09:00pm 11.4 W 6 8 1006.6 - 0.6 - - - - - - -
01/08:30pm 11.2 W 8 10 1006.3 - 0.6 - - - - - - -
01/08:00pm 11.3 W 8 11 1006.0 - 0.6 - - - - - - -
01/07:30pm 12.0 WSW 11 14 1005.6 - 0.6 - - - - - - -
01/07:00pm 12.2 W 14 19 1004.9 - 0.6 - - - - - - -
01/06:30pm 12.1 W 14 20 1004.5 - 0.6 - - - - - - -
01/06:00pm 12.3 W 15 20 1004.2 - 0.6 Recent precip. - - - - - -
01/05:30pm 12.2 W 18 25 1003.9 - 0.6 - - - - - - -
01/05:00pm 12.4 W 21 30 1003.6 - 0.2 - - - - - - -
01/04:30pm 13.6 W 22 29 1002.9 - 0.0 - - - - - - -
01/04:00pm 13.9 W 25 34 1002.2 - 0.0 - - - - - - -
01/03:30pm 14.1 W 23 32 1001.6 - 0.0 - - - - - - -
01/03:00pm 14.7 W 23 30 1001.4 - 0.0 - - - - - - -
01/02:30pm 16.2 W 21 29 1001.2 - 0.0 - - - - - - -
01/02:00pm 15.8 W 22 28 1001.0 - 0.0 - - - - - - -
01/01:30pm 16.1 W 20 29 1000.9 - 0.0 - - - - - - -
01/01:00pm 15.3 W 21 27 1000.9 - 0.0 - - - - - - -
01/12:30pm 15.8 WNW 19 25 1000.7 - 0.0 - - - - - - -
01/12:00pm 15.8 WNW 19 26 1000.5 - 0.0 - - - - - - -
01/11:30am 15.8 W 20 26 1000.6 - 0.0 - - - - - - -
01/11:00am 14.9 W 19 25 1000.4 - 0.0 - - - - - - -
01/10:30am 14.9 WNW 17 24 1000.4 - 0.0 - - - - - - -
01/10:00am 14.3 WNW 19 27 1000.1 - 0.0 - - - - - - -
01/09:30am 14.4 W 18 23 1000.0 - 0.0 - - - - - - -
01/09:00am 14.2 W 18 25 999.8 - 3.2 - - - - - - -
01/08:30am 13.4 W 14 19 999.5 - 3.2 - - - - - - -
01/08:00am 13.1 W 13 19 999.1 - 3.2 - - - - - - -
01/07:30am 12.6 W 14 19 998.7 - 3.2 - - - - - - -
01/07:00am 12.0 W 14 18 998.1 - 2.8 - - - - - - -
01/06:30am 11.9 W 14 18 997.5 - 2.8 - - - - - - -
01/06:00am 11.8 WNW 15 20 996.8 - 2.2 Rain - - - - - -
01/05:30am 11.5 WNW 12 17 996.3 - 2.0 - - - - - - -
01/05:00am 11.3 NW 13 18 995.8 - 2.0 - - - - - - -
01/04:30am 10.8 NW 11 19 995.3 - 2.0 - - - - - - -
01/04:00am 10.6 NW 11 17 995.1 - 1.2 - - - - - - -
01/03:30am 10.5 NW 10 15 995.1 - 0.8 - - - - - - -
01/03:00am 10.6 NNW 9 14 995.2 - 0.2 Recent precip. - - - - - -
01/02:30am 10.6 NNW 8 14 995.3 - 0.2 - - - - - - -
01/02:00am 10.4 NNW 6 9 995.7 - 0.0 - - - - - - -
01/01:30am 9.8 NNW 3 4 995.9 - 0.0 - - - - - - -
01/01:00am 9.8 N 4 7 995.8 - 0.0 - - - - - - -
01/12:30am 9.1 N 4 5 995.9 - 0.0 - - - - - - -
01/12:00am 9.2 N 4 5 996.1 - 0.0 - - - - - - -
 
Date/Time
EST
Temp
°C
Wind Pressure Rain since
9am
mm
Weather Cloud Vis
km
Sea
Height
m
Swell
Dir  Spd
kts
Gust
kts
hPa Trend Height
m
Period
s
Dir
30/11:30pm 9.4 N 4 5 996.2 - 0.0 - - - - - - -
30/11:00pm 9.4 N 5 7 996.6 - 0.0 - - - - - - -
30/10:30pm 9.5 N 5 5 996.7 - 0.0 - - - - - - -
30/10:00pm 9.0 NNW 4 5 996.9 - 0.0 - - - - - - -
30/09:30pm 8.9 NNW 5 6 997.0 - 0.0 - - - - - - -
30/09:00pm 8.3 NNW 5 6 996.8 - 0.0 - - - - - - -
30/08:30pm 8.7 NNW 4 6 996.5 - 0.0 - - - - - - -
30/08:00pm 9.0 NNW 4 4 996.1 - 0.0 - - - - - - -
30/07:30pm 9.4 N 3 4 995.6 - 0.0 - - - - - - -
30/07:00pm 9.6 W 3 4 995.3 - 0.0 - - - - - - -
30/06:30pm 10.2 W 4 4 995.0 - 0.0 - - - - - - -
30/06:00pm 11.0 W 6 7 994.9 - 0.0 - - - - - - -
30/05:30pm 11.7 WSW 5 6 994.5 - 0.0 - - - - - - -
30/05:00pm 13.3 SW 6 8 994.1 - 0.0 - - - - - - -
30/04:30pm 14.0 SW 7 9 993.7 - 0.0 - - - - - - -
30/04:00pm 13.9 SW 8 11 993.5 - 0.0 - - - - - - -
30/03:30pm 14.6 SW 9 12 993.1 - 0.0 - - - - - - -
30/03:00pm 14.7 SW 9 11 992.7 - 0.0 - - - - - - -
30/02:30pm 14.8 SW 10 13 992.4 - 0.0 - - - - - - -
30/02:00pm 15.2 WSW 10 15 992.2 - 0.0 - - - - - - -
30/01:30pm 14.2 WSW 11 15 992.0 - 0.0 - - - - - - -
30/01:00pm 15.0 SW 13 16 991.8 - 0.0 - - - - - - -
30/12:30pm 15.1 SW 11 14 991.6 - 0.0 - - - - - - -
30/12:00pm 15.2 WSW 9 12 991.6 - 0.0 - - - - - - -
30/11:30am 15.0 W 5 9 991.6 - 0.0 - - - - - - -
30/11:00am 14.9 NNW 3 5 991.5 - 0.0 - - - - - - -
30/10:30am 14.4 N 1 4 991.4 - 0.0 - - - - - - -
30/10:00am 13.8 N 4 7 991.3 - 0.0 - - - - - - -
30/09:30am 12.3 NE 5 9 991.2 - 0.0 - - - - - - -
30/09:00am 12.9 ESE 5 9 991.6 - 2.2 - - - - - - -
30/08:30am 12.3 ESE 2 5 991.5 - 2.2 - - - - - - -
30/08:00am 11.4 CALM 0 0 991.2 - 2.2 - - - - - - -
30/07:30am 10.8 CALM 0 1 990.8 - 2.2 - - - - - - -
30/07:00am 11.1 NE 3 5 990.2 - 2.2 - - - - - - -
30/06:30am 10.6 ENE 5 7 989.9 - 2.2 - - - - - - -
30/06:00am 9.9 E 5 8 989.6 - 2.2 - - - - - - -
30/05:30am 9.6 ESE 4 7 989.6 - 2.2 - - - - - - -
30/05:00am 9.7 ESE 3 5 989.6 - 2.2 - - - - - - -
30/04:30am 9.7 E 4 5 989.6 - 2.2 - - - - - - -
30/04:00am 8.4 ESE 3 4 989.4 - 2.2 - - - - - - -
30/03:30am 9.0 NE 2 4 989.3 - 2.2 - - - - - - -
30/03:00am 9.8 ENE 4 5 989.6 - 2.2 - - - - - - -
30/02:30am 9.9 ENE 4 7 990.1 - 2.2 - - - - - - -
30/02:00am 10.3 ENE 4 8 990.5 - 2.2 - - - - - - -
30/01:30am 10.2 E 3 5 990.8 - 2.2 - - - - - - -
30/01:00am 10.4 E 4 5 991.2 - 2.2 - - - - - - -
30/12:30am 7.7 N 3 4 991.5 - 2.2 - - - - - - -
30/12:00am 9.1 E 4 5 991.2 - 2.2 - - - - - - -
 
Date/Time
EST
Temp
°C
Wind Pressure Rain since
9am
mm
Weather Cloud Vis
km
Sea
Height
m
Swell
Dir  Spd
kts
Gust
kts
hPa Trend Height
m
Period
s
Dir
29/11:30pm 9.5 ESE 5 7 991.2 - 2.2 - - - - - - -
29/11:00pm 7.0 SE 4 5 991.1 - 2.2 - - - - - - -
29/10:30pm 7.3 CALM 0 1 991.1 - 2.2 - - - - - - -
29/10:00pm 8.3 CALM 0 2 991.1 - 2.2 - - - - - - -
29/09:30pm 8.3 CALM 0 0 991.4 - 2.2 - - - - - - -
29/09:00pm 9.4 CALM 0 0 991.8 - 2.2 - - - - - - -
29/08:30pm 9.6 NE 2 4 991.7 - 2.2 - - - - - - -
29/08:00pm 9.1 CALM 0 2 991.8 - 2.2 - - - - - - -
29/07:30pm 9.8 CALM 0 1 991.6 - 2.2 - - - - - - -
29/07:00pm 11.3 E 2 3 991.3 - 2.2 - - - - - - -
29/06:30pm 11.8 N 2 6 990.8 - 2.2 - - - - - - -
29/06:00pm 12.7 SSE 2 5 990.1 - 2.2 - - - - - - -
29/05:30pm 14.6 WNW 4 5 989.9 - 2.2 - - - - - - -
29/05:00pm 15.1 NW 5 7 989.6 - 2.2 - - - - - - -
29/04:30pm 14.5 SW 3 5 989.2 - 2.2 - - - - - - -
29/04:00pm 14.5 S 3 5 988.7 - 2.2 - - - - - - -
29/03:30pm 14.4 S 3 6 988.7 - 2.2 - - - - - - -
29/03:00pm 13.6 SW 5 8 988.6 - 2.2 - - - - - - -
29/02:30pm 13.7 WSW 7 9 988.6 - 2.2 - - - - - - -
29/02:00pm 13.5 WNW 6 9 988.6 - 2.2 - - - - - - -
29/01:30pm 13.4 NW 6 9 988.8 - 2.2 - - - - - - -
29/01:00pm 11.1 NW 7 11 989.1 - 2.0 - - - - - - -
29/12:30pm 11.0 NW 12 17 989.1 - 1.0 - - - - - - -
29/12:03pm 12.6 NNW 6 25 988.9 - 0.8 - - - - - - -
29/12:00pm 13.4 N 3 7 988.9 - 0.8 - - - - - - -
29/11:30am 12.9 NE 4 5 988.9 - 0.8 - - - - - - -
29/11:00am 13.2 NE 2 3 989.1 - 0.8 - - - - - - -
29/10:30am 12.7 NNE 2 3 989.6 - 0.8 - - - - - - -
29/10:00am 12.4 SE 4 6 989.7 - 0.4 - - - - - - -
29/09:30am 12.1 SE 3 5 989.9 - 0.2 - - - - - - -
29/09:00am 11.6 SSW 4 6 989.7 - 6.0 Rain - - - - - -
29/08:30am 11.5 W 9 13 990.7 - 5.4 - - - - - - -
29/08:00am 12.2 ENE 5 8 990.1 - 4.6 - - - - - - -
29/07:30am 12.2 ENE 7 10 990.0 - 3.6 - - - - - - -
29/07:00am 12.2 ENE 10 14 989.9 - 2.2 - - - - - - -
29/06:30am 12.2 ENE 13 20 989.9 - 1.6 - - - - - - -
29/06:00am 12.3 E 10 16 989.6 - 1.2 Recent precip. - - - - - -
29/05:30am 12.1 ENE 11 17 990.4 - 1.2 - - - - - - -
29/05:00am 12.3 ENE 12 20 991.2 - 0.6 - - - - - - -
29/04:30am 12.6 ENE 16 24 991.1 - 0.6 - - - - - - -
29/04:00am 12.6 ENE 15 20 991.4 - 0.6 - - - - - - -
29/03:30am 12.7 ENE 17 25 992.4 - 0.6 - - - - - - -
29/03:00am 12.2 E 11 19 992.6 - 0.6 Recent precip. - - - - - -
29/02:30am 12.3 ENE 10 15 993.8 - 0.0 - - - - - - -
29/02:00am 12.8 E 9 18 994.0 - 0.0 - - - - - - -
29/01:30am 12.7 ENE 11 16 995.5 - 0.0 - - - - - - -
29/01:00am 12.6 ENE 10 14 996.2 - 0.0 - - - - - - -
29/12:30am 12.7 ENE 9 12 997.1 - 0.0 - - - - - - -
29/12:00am 12.7 ENE 9 13 997.6 - 0.0 - - - - - - -

Other Formats:

Comma delimited format used in spreadsheet applications
http://www.bom.gov.au/fwo/IDV60701/IDV60701.94911.axf

JavaScript Object Notation format (JSON) in row-major order
http://www.bom.gov.au/fwo/IDV60701/IDV60701.94911.json